Station Historical Data
Daily Summary for January 14, 2018 Units:  Metric    English   Both
« Previous Day
Next Day »
Daily Weekly Monthly Yearly Custom
  High: Low: Average:
Temperature: -7.5 °C -18.8 °C -12.9 °C
Dew Point: -12.6 °C -21.1 °C -16.3 °C
Humidity: 84% 60% 76%
Wind Speed: 6.4km/h 0km/h 1.1km/h
Wind Gust: 12.9km/h - -
Wind- - SSW
Pressure: 1041.9 hPa 1036.8 hPa -
Precipitation: 0 mm    
Historical Graphs
 
 
Tabular Data for January 14, 2018
Time Temperature Dew Point Pressure Wind Wind Speed Wind Gust Humidity Rainfall Rate (Hourly)
00:04 -13.1 °C -15.8 °C 1036.8 hPa Calm   4.8 km/h 80% 0 mm
00:09 -13.2 °C -15.9 °C 1036.8 hPa Calm     80% 0 mm
00:14 -13.2 °C -15.9 °C 1036.8 hPa Calm     80% 0 mm
00:19 -13.2 °C -15.8 °C 1036.8 hPa Calm     81% 0 mm
00:24 -13.2 °C -15.8 °C 1036.8 hPa Calm     81% 0 mm
00:29 -13.2 °C -15.8 °C 1036.8 hPa Calm     81% 0 mm
00:34 -13.2 °C -15.8 °C 1036.8 hPa Calm     81% 0 mm
00:39 -13.2 °C -15.8 °C 1036.8 hPa Calm     81% 0 mm
00:44 -13.2 °C -15.7 °C 1036.8 hPa Calm     81% 0 mm
00:49 -13.1 °C -15.7 °C 1036.8 hPa Calm     81% 0 mm
00:54 -13.1 °C -15.7 °C 1036.8 hPa Calm     81% 0 mm
00:59 -13.1 °C -15.7 °C 1036.8 hPa Calm     81% 0 mm
01:05 -13.1 °C -15.6 °C 1036.8 hPa Calm     82% 0 mm
01:10 -13.1 °C -15.5 °C 1037.1 hPa Calm     82% 0 mm
01:15 -13.1 °C -15.6 °C 1037.1 hPa Calm     82% 0 mm
01:20 -13.1 °C -15.6 °C 1037.1 hPa Calm     82% 0 mm
01:25 -13.1 °C -15.6 °C 1037.1 hPa Calm     82% 0 mm
01:30 -13.1 °C -15.6 °C 1037.1 hPa Calm     82% 0 mm
01:35 -13.1 °C -15.5 °C 1037.1 hPa Calm     82% 0 mm
01:40 -13.1 °C -15.5 °C 1037.1 hPa Calm     82% 0 mm
01:45 -13.1 °C -15.5 °C 1037.1 hPa Calm     82% 0 mm
01:50 -13.1 °C -15.5 °C 1037.1 hPa Calm     82% 0 mm
01:55 -13.1 °C -15.6 °C 1037.5 hPa Calm     82% 0 mm
02:00 -13.1 °C -15.5 °C 1037.5 hPa West 1.6 km/h 8 km/h 82% 0 mm
02:05 -13.1 °C -15.6 °C 1037.5 hPa West 3.2 km/h 8 km/h 82% 0 mm
02:10 -13.2 °C -15.7 °C 1037.5 hPa WSW 1.6 km/h 8 km/h 82% 0 mm
02:15 -13.3 °C -15.7 °C 1037.5 hPa West 3.2 km/h 8 km/h 82% 0 mm
02:20 -13.4 °C -15.8 °C 1037.8 hPa West 3.2 km/h 4.8 km/h 82% 0 mm
02:25 -13.5 °C -15.9 °C 1037.8 hPa West 3.2 km/h 4.8 km/h 82% 0 mm
02:30 -13.7 °C -16.1 °C 1037.8 hPa West 1.6 km/h 3.2 km/h 82% 0 mm
02:35 -13.8 °C -16.2 °C 1037.8 hPa Calm   3.2 km/h 82% 0 mm
02:40 -13.9 °C -16.4 °C 1037.8 hPa Calm   3.2 km/h 81% 0 mm
02:45 -14.1 °C -16.6 °C 1038.1 hPa Calm   3.2 km/h 81% 0 mm
02:50 -14.2 °C -16.8 °C 1038.1 hPa Calm   1.6 km/h 81% 0 mm
02:55 -14.3 °C -16.9 °C 1038.1 hPa Calm   1.6 km/h 81% 0 mm
03:00 -14.6 °C -17.2 °C 1038.1 hPa Calm   1.6 km/h 81% 0 mm
03:05 -14.8 °C -17.3 °C 1038.1 hPa Calm   1.6 km/h 81% 0 mm
03:10 -14.8 °C -17.4 °C 1038.1 hPa Calm     81% 0 mm
03:15 -15 °C -17.6 °C 1038.1 hPa Calm   3.2 km/h 81% 0 mm
03:20 -15.2 °C -17.7 °C 1038.1 hPa Calm   4.8 km/h 81% 0 mm
03:25 -15.3 °C -17.8 °C 1038.5 hPa Calm   4.8 km/h 81% 0 mm
03:35 -15.5 °C -18 °C 1038.5 hPa West 1.6 km/h 3.2 km/h 81% 0 mm
03:40 -15.6 °C -18.1 °C 1038.5 hPa Calm   3.2 km/h 81% 0 mm
03:45 -15.7 °C -18.2 °C 1038.5 hPa Calm     81% 0 mm
03:50 -15.7 °C -18.2 °C 1038.5 hPa Calm     81% 0 mm
03:55 -15.8 °C -18.2 °C 1038.5 hPa Calm     82% 0 mm
04:00 -15.8 °C -18.2 °C 1038.5 hPa Calm     82% 0 mm
04:05 -15.9 °C -18.3 °C 1038.5 hPa Calm     82% 0 mm
04:10 -16.1 °C -18.6 °C 1038.5 hPa Calm     81% 0 mm
04:15 -16.3 °C -18.8 °C 1038.5 hPa Calm     81% 0 mm
04:20 -16.3 °C -18.8 °C 1038.5 hPa Calm     81% 0 mm
04:25 -16.4 °C -18.9 °C 1038.8 hPa Calm     81% 0 mm
04:30 -16.5 °C -19 °C 1038.5 hPa Calm     81% 0 mm
04:35 -16.6 °C -18.9 °C 1038.8 hPa Calm     82% 0 mm
04:40 -16.7 °C -19.2 °C 1038.8 hPa Calm     81% 0 mm
04:45 -16.8 °C -19.3 °C 1038.8 hPa Calm     81% 0 mm
04:50 -16.9 °C -19.4 °C 1038.8 hPa Calm     81% 0 mm
04:55 -17.1 °C -19.6 °C 1039.2 hPa Calm     81% 0 mm
05:00 -17.1 °C -19.4 °C 1039.2 hPa Calm     82% 0 mm
05:05 -17.2 °C -19.5 °C 1039.2 hPa Calm     82% 0 mm
05:10 -17.2 °C -19.6 °C 1039.2 hPa Calm     82% 0 mm
05:15 -17.2 °C -19.6 °C 1039.2 hPa Calm     82% 0 mm
05:20 -17.2 °C -19.6 °C 1039.5 hPa Calm     82% 0 mm
05:25 -17.2 °C -19.6 °C 1039.5 hPa Calm     82% 0 mm
05:30 -17.2 °C -19.5 °C 1039.5 hPa Calm     82% 0 mm
05:35 -17.1 °C -19.4 °C 1039.5 hPa Calm     82% 0 mm
05:40 -17.1 °C -19.4 °C 1039.5 hPa Calm     82% 0 mm
05:44 -17.1 °C -19.3 °C 1039.5 hPa Calm     83% 0 mm
05:54 -16.9 °C -19.2 °C 1039.5 hPa Calm     83% 0 mm
05:59 -16.9 °C -19.2 °C 1039.8 hPa Calm     83% 0 mm
06:04 -17 °C -19.2 °C 1039.8 hPa Calm     83% 0 mm
06:10 -17 °C -19.2 °C 1039.8 hPa Calm     83% 0 mm
06:15 -17.1 °C -19.3 °C 1039.8 hPa Calm     83% 0 mm
06:19 -17.1 °C -19.3 °C 1039.8 hPa Calm     83% 0 mm
06:25 -17.2 °C -19.5 °C 1039.8 hPa Calm     82% 0 mm
06:35 -17.3 °C -19.5 °C 1039.8 hPa Calm     83% 0 mm
06:40 -17.3 °C -19.5 °C 1039.8 hPa Calm     83% 0 mm
06:45 -17.3 °C -19.6 °C 1039.8 hPa Calm     83% 0 mm
06:49 -17.4 °C -19.6 °C 1040.2 hPa Calm     83% 0 mm
06:54 -17.5 °C -19.8 °C 1040.2 hPa Calm     82% 0 mm
07:05 -17.7 °C -20.1 °C 1040.2 hPa Calm     82% 0 mm
07:09 -17.8 °C -20.2 °C 1040.2 hPa Calm     82% 0 mm
07:15 -17.9 °C -20.3 °C 1040.2 hPa Calm     82% 0 mm
07:19 -18.1 °C -20.4 °C 1040.2 hPa Calm     82% 0 mm
07:24 -18.2 °C -20.6 °C 1040.2 hPa Calm     82% 0 mm
07:30 -18.3 °C -20.7 °C 1040.2 hPa Calm     82% 0 mm
07:40 -18.6 °C -20.9 °C 1040.5 hPa Calm     82% 0 mm
07:45 -18.7 °C -21 °C 1040.5 hPa Calm     82% 0 mm
07:50 -18.7 °C -21.1 °C 1040.5 hPa Calm     82% 0 mm
07:55 -18.8 °C -21.1 °C 1040.5 hPa Calm     82% 0 mm
08:00 -18.8 °C -21.1 °C 1040.5 hPa Calm     82% 0 mm
08:04 -18.7 °C -21.1 °C 1040.5 hPa Calm     82% 0 mm
08:10 -18.7 °C -21 °C 1040.9 hPa Calm     82% 0 mm
08:15 -18.6 °C -20.9 °C 1040.9 hPa Calm     82% 0 mm
08:19 -18.6 °C -20.7 °C 1040.9 hPa Calm     83% 0 mm
08:24 -18.4 °C -20.6 °C 1040.9 hPa SW 3.2 km/h 4.8 km/h 83% 0 mm
08:29 -18.3 °C -20.4 °C 1040.9 hPa SSW 1.6 km/h 4.8 km/h 83% 0 mm
08:34 -18.1 °C -20.2 °C 1040.9 hPa SSW 3.2 km/h 4.8 km/h 83% 0 mm
08:40 -17.9 °C -20.1 °C 1040.9 hPa SSW 3.2 km/h 4.8 km/h 83% 0 mm
08:45 -17.7 °C -19.7 °C 1040.9 hPa South 1.6 km/h 6.4 km/h 84% 0 mm
08:50 -17.4 °C -19.5 °C 1041.2 hPa South 6.4 km/h 6.4 km/h 84% 0 mm
09:00 -16 °C -18.1 °C 1041.2 hPa Calm   6.4 km/h 84% 0 mm
09:05 -15.8 °C -17.9 °C 1041.2 hPa Calm     84% 0 mm
09:09 -15.5 °C -17.6 °C 1041.5 hPa Calm     84% 0 mm
09:14 -15.3 °C -17.4 °C 1041.5 hPa Calm     84% 0 mm
09:20 -14.9 °C -17.2 °C 1041.5 hPa Calm     83% 0 mm
09:25 -14.8 °C -17 °C 1041.5 hPa Calm     83% 0 mm
09:29 -14.5 °C -16.8 °C 1041.5 hPa Calm     83% 0 mm
09:34 -14.4 °C -16.8 °C 1041.9 hPa Calm     82% 0 mm
09:39 -14.2 °C -16.6 °C 1041.9 hPa Calm     82% 0 mm
09:50 -13.7 °C -16.2 °C 1041.9 hPa Calm   3.2 km/h 81% 0 mm
09:55 -13.4 °C -16.1 °C 1041.9 hPa South 3.2 km/h 4.8 km/h 80% 0 mm
10:00 -13.1 °C -15.8 °C 1041.9 hPa South 1.6 km/h 4.8 km/h 80% 0 mm
10:14 -12.3 °C -15.2 °C 1041.9 hPa SSE 3.2 km/h 8 km/h 79% 0 mm
10:19 -11.9 °C -15 °C 1041.9 hPa SSE 3.2 km/h 8 km/h 78% 0 mm
10:25 -11.7 °C -14.9 °C 1041.9 hPa SSE 3.2 km/h 6.4 km/h 77% 0 mm
10:29 -11.5 °C -14.7 °C 1041.9 hPa SSE 3.2 km/h 4.8 km/h 77% 0 mm
10:34 -11.2 °C -14.4 °C 1041.9 hPa SSE 3.2 km/h 6.4 km/h 77% 0 mm
10:39 -11.1 °C -14.4 °C 1041.9 hPa SSE 3.2 km/h 6.4 km/h 76% 0 mm
10:44 -10.8 °C -14.4 °C 1041.9 hPa SSE 1.6 km/h 6.4 km/h 75% 0 mm
10:49 -10.6 °C -14.1 °C 1041.9 hPa SSE 3.2 km/h 6.4 km/h 75% 0 mm
10:55 -10.3 °C -14 °C 1041.9 hPa SSE 3.2 km/h 6.4 km/h 74% 0 mm
11:00 -10 °C -13.8 °C 1041.9 hPa SSE 1.6 km/h 6.4 km/h 74% 0 mm
11:05 -10 °C -14.1 °C 1041.9 hPa SSE 1.6 km/h 6.4 km/h 72% 0 mm
11:10 -9.9 °C -14 °C 1041.9 hPa SSE 6.4 km/h 6.4 km/h 72% 0 mm
11:15 -9.8 °C -14.1 °C 1041.9 hPa SSE 4.8 km/h 6.4 km/h 71% 0 mm
11:24 -9.4 °C -13.9 °C 1041.5 hPa SSE 3.2 km/h 6.4 km/h 70% 0 mm
11:29 -9.2 °C -13.7 °C 1041.5 hPa SSE 1.6 km/h 6.4 km/h 70% 0 mm
11:35 -9.1 °C -13.6 °C 1041.5 hPa SSE 3.2 km/h 6.4 km/h 70% 0 mm
11:40 -8.8 °C -13.3 °C 1041.5 hPa SSE 3.2 km/h 6.4 km/h 70% 0 mm
11:44 -8.9 °C -13.7 °C 1041.5 hPa Calm   8 km/h 68% 0 mm
11:50 -9.1 °C -14.1 °C 1041.5 hPa South 3.2 km/h 8 km/h 67% 0.25 mm
11:59 -8.7 °C -13.6 °C 1041.2 hPa South 3.2 km/h 8 km/h 68% 0.25 mm
12:04 -8.7 °C -13.6 °C 1041.2 hPa South 1.6 km/h 6.4 km/h 68% 0.25 mm
12:09 -8.5 °C -13.3 °C 1041.2 hPa SSE 4.8 km/h 6.4 km/h 68% 0.25 mm
12:14 -8.4 °C -13.5 °C 1041.2 hPa Calm   8 km/h 67% 0.25 mm
12:19 -8.4 °C -13.4 °C 1040.9 hPa South 4.8 km/h 6.4 km/h 67% 0.25 mm
12:24 -8.3 °C -13.3 °C 1040.9 hPa Calm   6.4 km/h 67% 0.25 mm
12:29 -8.1 °C -13.2 °C 1040.9 hPa South 3.2 km/h 8 km/h 67% 0.25 mm
12:34 -8.2 °C -13.4 °C 1040.9 hPa SSW 4.8 km/h 11.3 km/h 66% 0.76 mm
12:39 -8 °C -13.1 °C 1040.9 hPa SW 4.8 km/h 11.3 km/h 67% 0.76 mm
12:45 -8.1 °C -13.3 °C 1040.9 hPa SW 4.8 km/h 8 km/h 66% 0.76 mm
12:50 -8.1 °C -13.1 °C 1040.5 hPa SW 4.8 km/h 9.7 km/h 67% 0.51 mm
12:54 -7.9 °C -12.9 °C 1040.5 hPa SSW 3.2 km/h 6.4 km/h 67% 1.02 mm
12:59 -7.8 °C -12.8 °C 1040.5 hPa WSW 6.4 km/h 9.7 km/h 67% 1.02 mm
13:04 -7.9 °C -13.2 °C 1040.5 hPa SW 4.8 km/h 9.7 km/h 66% 1.02 mm
13:09 -7.9 °C -13.2 °C 1040.5 hPa SW 4.8 km/h 9.7 km/h 66% 1.02 mm
13:14 -7.9 °C -12.9 °C 1040.5 hPa West 4.8 km/h 9.7 km/h 67% 1.02 mm
13:20 -8 °C -13.1 °C 1040.5 hPa WSW 6.4 km/h 12.9 km/h 67% 1.02 mm
13:24 -7.8 °C -12.7 °C 1040.5 hPa South 3.2 km/h 9.7 km/h 68% 1.52 mm
13:29 -7.8 °C -12.8 °C 1040.5 hPa West 3.2 km/h 12.9 km/h 67% 1.52 mm
13:34 -7.8 °C -12.8 °C 1040.5 hPa WSW 4.8 km/h 12.9 km/h 67% 1.02 mm
13:39 -7.7 °C -12.6 °C 1040.2 hPa WSW 3.2 km/h 9.7 km/h 68% 1.27 mm
13:49 -7.9 °C -12.9 °C 1040.2 hPa SW 4.8 km/h 11.3 km/h 67% 1.27 mm
13:55 -7.8 °C -12.8 °C 1040.2 hPa WSW 3.2 km/h 6.4 km/h 67% 0.76 mm
14:00 -7.7 °C -12.8 °C 1040.2 hPa WSW 3.2 km/h 8 km/h 67% 0.76 mm
14:04 -7.6 °C -12.9 °C 1040.2 hPa SW 6.4 km/h 8 km/h 66% 1.02 mm
14:09 -7.7 °C -13 °C 1040.2 hPa SW 4.8 km/h 8 km/h 66% 1.02 mm
14:14 -7.7 °C -13.3 °C 1040.2 hPa SSW 4.8 km/h 8 km/h 64% 1.02 mm
14:19 -7.9 °C -13.3 °C 1040.2 hPa Calm   8 km/h 65% 1.02 mm
14:24 -7.7 °C -13.1 °C 1040.2 hPa SSW 1.6 km/h 6.4 km/h 65% 0.51 mm
14:29 -7.5 °C -12.9 °C 1040.2 hPa SSW 4.8 km/h 8 km/h 65% 0.76 mm
14:34 -7.5 °C -13.2 °C 1039.8 hPa SSW 4.8 km/h 6.4 km/h 64% 0.76 mm
14:39 -7.7 °C -13.5 °C 1040.2 hPa SW 1.6 km/h 8 km/h 63% 0.51 mm
14:44 -7.7 °C -13.6 °C 1040.2 hPa SW 4.8 km/h 8 km/h 63% 0.51 mm
14:49 -7.8 °C -13.8 °C 1040.2 hPa SW 3.2 km/h 6.4 km/h 62% 0.51 mm
14:59 -7.7 °C -13.3 °C 1040.2 hPa SW 1.6 km/h 4.8 km/h 64% 0.76 mm
15:05 -7.5 °C -13.2 °C 1040.2 hPa SW 3.2 km/h 6.4 km/h 64% 0.51 mm
15:10 -7.6 °C -13.2 °C 1040.2 hPa SSW 3.2 km/h 8 km/h 64% 0.51 mm
15:14 -7.6 °C -13.4 °C 1040.2 hPa Calm   4.8 km/h 63% 0.76 mm
15:19 -7.6 °C -13.4 °C 1040.2 hPa South 3.2 km/h 8 km/h 63% 0.76 mm
15:24 -7.8 °C -13.8 °C 1040.2 hPa South 3.2 km/h 8 km/h 62% 0.76 mm
15:29 -7.8 °C -14 °C 1040.2 hPa South 1.6 km/h 6.4 km/h 61% 0.51 mm
15:34 -7.9 °C -14.1 °C 1040.2 hPa South 3.2 km/h 4.8 km/h 61% 0.51 mm
15:39 -7.9 °C -13.9 °C 1040.2 hPa Calm   6.4 km/h 62% 0.51 mm
15:44 -8.1 °C -14.3 °C 1039.8 hPa Calm   4.8 km/h 61% 0.76 mm
15:49 -8.1 °C -14.5 °C 1039.8 hPa South 1.6 km/h 4.8 km/h 60% 0.76 mm
15:59 -8.3 °C -14.5 °C 1039.8 hPa South 3.2 km/h 6.4 km/h 61% 0.51 mm
16:04 -8.4 °C -14.6 °C 1039.8 hPa South 1.6 km/h 6.4 km/h 61% 0.51 mm
16:09 -8.6 °C -14.7 °C 1039.8 hPa Calm   3.2 km/h 61% 0.51 mm
16:15 -8.8 °C -14.9 °C 1039.8 hPa Calm   3.2 km/h 61% 0.25 mm
16:19 -8.8 °C -14.8 °C 1039.8 hPa South 1.6 km/h 4.8 km/h 62% 0.25 mm
16:24 -8.9 °C -15.1 °C 1039.8 hPa South 1.6 km/h 4.8 km/h 61% 0.25 mm
16:29 -9.1 °C -15.4 °C 1039.8 hPa Calm   3.2 km/h 60% 0.25 mm
16:34 -9.1 °C -15.4 °C 1039.8 hPa Calm     60% 0.25 mm
16:49 -9.4 °C -15.8 °C 1039.8 hPa Calm   3.2 km/h 60% 0 mm
17:04 -10.2 °C -15.9 °C 1039.8 hPa Calm     63% 0 mm
17:09 -10.4 °C -15.9 °C 1039.8 hPa Calm     64% 0 mm
17:19 -10.8 °C -15.9 °C 1040.2 hPa Calm     66% 0 mm
17:24 -11.1 °C -16 °C 1040.2 hPa Calm     67% 0 mm
17:29 -11.2 °C -15.7 °C 1040.2 hPa Calm     69% 0 mm
17:34 -11.3 °C -15.7 °C 1040.2 hPa Calm     70% 0 mm
17:39 -11.4 °C -15.7 °C 1040.2 hPa Calm     71% 0 mm
17:44 -11.6 °C -15.8 °C 1040.2 hPa Calm     71% 0 mm
17:49 -11.7 °C -15.7 °C 1040.2 hPa Calm     72% 0 mm
17:54 -11.7 °C -15.6 °C 1040.2 hPa Calm     73% 0 mm
17:59 -11.8 °C -15.5 °C 1040.2 hPa Calm     74% 0 mm
18:04 -11.8 °C -15.6 °C 1040.2 hPa Calm     74% 0 mm
18:09 -11.9 °C -15.5 °C 1040.2 hPa Calm     75% 0 mm
18:14 -11.9 °C -15.5 °C 1040.2 hPa Calm     75% 0 mm
18:19 -11.8 °C -15.3 °C 1040.2 hPa Calm     75% 0 mm
18:24 -11.5 °C -15.1 °C 1040.2 hPa Calm     75% 0 mm
18:29 -11.4 °C -15 °C 1040.2 hPa Calm     75% 0 mm
18:34 -11.5 °C -15.1 °C 1040.2 hPa Calm     75% 0 mm
18:39 -11.5 °C -15.1 °C 1040.2 hPa Calm   1.6 km/h 75% 0 mm
18:44 -11.6 °C -15.1 °C 1039.8 hPa Calm   1.6 km/h 75% 0 mm
18:54 -11.6 °C -14.9 °C 1039.8 hPa Calm   1.6 km/h 76% 0 mm
18:59 -11.6 °C -14.9 °C 1040.2 hPa Calm   3.2 km/h 76% 0 mm
19:04 -11.6 °C -15 °C 1040.2 hPa Calm   3.2 km/h 76% 0 mm
19:09 -11.7 °C -15.1 °C 1040.2 hPa Calm   1.6 km/h 76% 0 mm
19:14 -11.8 °C -15.2 °C 1040.2 hPa Calm   1.6 km/h 76% 0 mm
19:19 -11.8 °C -15.2 °C 1039.8 hPa Calm     76% 0 mm
19:24 -11.9 °C -15.3 °C 1039.8 hPa Calm     76% 0 mm
19:29 -11.9 °C -15.3 °C 1039.8 hPa South 3.2 km/h 3.2 km/h 76% 0 mm
19:34 -11.8 °C -15.4 °C 1039.8 hPa SSE 3.2 km/h 6.4 km/h 75% 0 mm
19:39 -11.9 °C -15.4 °C 1039.8 hPa Calm   4.8 km/h 75% 0 mm
19:49 -12.1 °C -15.6 °C 1039.8 hPa SSE 1.6 km/h 6.4 km/h 75% 0 mm
19:54 -12.2 °C -15.6 °C 1039.5 hPa SSE 1.6 km/h 6.4 km/h 76% 0 mm
19:59 -12.3 °C -15.7 °C 1039.5 hPa SSE 1.6 km/h 6.4 km/h 76% 0 mm
20:04 -12.4 °C -15.7 °C 1039.5 hPa SSE 1.6 km/h 6.4 km/h 76% 0 mm
20:09 -12.5 °C -15.8 °C 1039.5 hPa SSE 1.6 km/h 6.4 km/h 76% 0 mm
20:14 -12.6 °C -15.8 °C 1039.5 hPa SE 1.6 km/h 6.4 km/h 77% 0 mm
20:19 -12.6 °C -15.9 °C 1039.5 hPa Calm   6.4 km/h 76% 0 mm
20:24 -12.7 °C -16.1 °C 1039.5 hPa SE 3.2 km/h 6.4 km/h 76% 0 mm
20:29 -12.8 °C -15.9 °C 1039.5 hPa Calm   4.8 km/h 77% 0 mm
20:34 -12.8 °C -16 °C 1039.5 hPa Calm   3.2 km/h 77% 0 mm
20:39 -12.9 °C -16.1 °C 1039.5 hPa Calm     77% 0 mm
20:44 -13 °C -16.2 °C 1039.8 hPa Calm     77% 0 mm
20:49 -13.1 °C -16.2 °C 1039.5 hPa Calm     77% 0 mm
20:54 -13.1 °C -16.3 °C 1039.5 hPa Calm     77% 0 mm
20:59 -13.2 °C -16.3 °C 1039.8 hPa Calm     77% 0 mm
21:04 -13.2 °C -16.4 °C 1039.8 hPa Calm     77% 0 mm
21:09 -13.3 °C -16.5 °C 1039.8 hPa Calm   4.8 km/h 77% 0 mm
21:14 -13.4 °C -16.6 °C 1039.8 hPa Calm   4.8 km/h 77% 0 mm
21:19 -13.5 °C -16.5 °C 1039.8 hPa Calm     78% 0 mm
21:24 -13.4 °C -16.4 °C 1039.8 hPa Calm     78% 0 mm
21:29 -13.4 °C -16.4 °C 1039.8 hPa Calm     78% 0 mm
21:34 -13.5 °C -16.5 °C 1039.8 hPa Calm     78% 0 mm
21:39 -13.6 °C -16.6 °C 1039.8 hPa Calm     78% 0 mm
21:44 -13.7 °C -16.7 °C 1040.2 hPa Calm     78% 0 mm
21:49 -13.7 °C -16.7 °C 1039.8 hPa Calm     78% 0 mm
21:54 -13.7 °C -16.7 °C 1039.8 hPa Calm   4.8 km/h 78% 0 mm
21:59 -13.7 °C -16.7 °C 1040.2 hPa SE 1.6 km/h 4.8 km/h 78% 0 mm
22:04 -13.7 °C -16.7 °C 1039.8 hPa Calm   4.8 km/h 78% 0 mm
22:09 -13.8 °C -16.7 °C 1039.8 hPa SE 1.6 km/h 4.8 km/h 79% 0 mm
22:14 -13.9 °C -16.7 °C 1039.8 hPa Calm   3.2 km/h 79% 0 mm
22:19 -13.9 °C -16.8 °C 1039.8 hPa SE 1.6 km/h 6.4 km/h 79% 0 mm
22:24 -14.1 °C -16.9 °C 1039.8 hPa SE 1.6 km/h 6.4 km/h 79% 0 mm
22:29 -14.1 °C -16.9 °C 1039.8 hPa Calm   4.8 km/h 79% 0 mm
22:39 -14.2 °C -17.1 °C 1039.8 hPa Calm     79% 0 mm
22:44 -14.2 °C -16.9 °C 1039.8 hPa Calm     80% 0 mm
22:49 -14.2 °C -16.9 °C 1039.8 hPa Calm     80% 0 mm
22:54 -14.2 °C -17.1 °C 1039.8 hPa Calm     79% 0 mm
22:59 -14.3 °C -17.1 °C 1039.8 hPa Calm     79% 0 mm
23:04 -14.3 °C -17.2 °C 1039.5 hPa Calm     79% 0 mm
23:09 -14.3 °C -17 °C 1039.5 hPa Calm     80% 0 mm
23:14 -14.4 °C -17.1 °C 1039.5 hPa Calm     80% 0 mm
23:19 -14.5 °C -17.2 °C 1039.5 hPa Calm     80% 0 mm
23:24 -14.5 °C -17.2 °C 1039.5 hPa Calm     80% 0 mm
23:29 -14.5 °C -17.2 °C 1039.5 hPa Calm     80% 0 mm
23:34 -14.5 °C -17.2 °C 1039.5 hPa Calm     80% 0 mm
23:39 -14.5 °C -17.2 °C 1039.5 hPa Calm     80% 0 mm
23:44 -14.4 °C -17.1 °C 1039.5 hPa Calm     80% 0 mm
23:49 -14.4 °C -17.1 °C 1039.5 hPa Calm     80% 0 mm
23:54 -14.3 °C -17 °C 1039.5 hPa Calm     80% 0 mm
23:59 -14.4 °C -17.1 °C 1039.5 hPa Calm     80% 0 mm
Buffalo, New York, USA
Compliments of Weather Underground - 2.25 mb